Time;durP1;ratioP1;P1;durP2;ratioP2;P2;SDS_P1;SDS_P2;PMS_P1;PMS_P2;Temp;Humidity;BMP_temperature;BMP_pressure;BME280_temperature;BME280_humidity;BME280_pressure;Samples;Min_cycle;Max_cycle;Signal;HPM_P1;HPM_P2
2022/07/29 00:01:02;;;;;;;5.17;4.17;;;;;;;20.50;86.18;97903.59;5059814;28;20197;-70
2022/07/29 00:03:29;;;;;;;4.60;4.10;;;;;;;20.52;86.42;97906.00;5059813;28;20296;-70
2022/07/29 00:05:56;;;;;;;4.80;4.40;;;;;;;20.41;86.74;97910.72;5059498;28;20747;-70
2022/07/29 00:08:22;;;;;;;5.80;4.37;;;;;;;20.43;86.95;97897.72;5059743;28;20205;-70
2022/07/29 00:10:50;;;;;;;4.83;4.20;;;;;;;20.43;86.71;97900.41;5059364;28;20258;-70
2022/07/29 00:13:17;;;;;;;4.90;4.40;;;;;;;20.41;86.61;97893.69;5059442;28;20209;-70
2022/07/29 00:15:43;;;;;;;5.70;5.03;;;;;;;20.39;86.81;97890.47;5059699;28;20216;-70
2022/07/29 00:18:10;;;;;;;4.83;4.23;;;;;;;20.40;87.33;97892.91;5059339;28;20676;-70
2022/07/29 00:20:36;;;;;;;4.90;4.50;;;;;;;20.41;86.90;97882.88;5059680;28;20201;-70
2022/07/29 00:23:04;;;;;;;5.60;4.20;;;;;;;20.39;87.33;97887.78;5059179;28;20201;-70
2022/07/29 00:25:30;;;;;;;5.00;4.50;;;;;;;20.43;87.07;97886.91;5059318;28;20241;-70
2022/07/29 00:27:57;;;;;;;4.87;4.13;;;;;;;20.45;86.97;97884.75;5060083;28;20296;-70
2022/07/29 00:30:24;;;;;;;6.80;4.87;;;;;;;20.35;87.57;97884.03;5059127;28;20601;-70
2022/07/29 00:32:50;;;;;;;5.07;4.37;;;;;;;20.32;87.93;97888.13;5059514;28;20324;-70
2022/07/29 00:38:00;;;;;;;4.80;4.30;;;;;;;20.21;90.81;97883.09;5059947;28;20176;-70
2022/07/29 00:40:27;;;;;;;4.80;4.30;;;;;;;20.12;90.48;97885.59;5059453;28;20330;-70
2022/07/29 00:42:53;;;;;;;6.57;4.63;;;;;;;20.16;90.18;97888.53;5059493;28;20207;-70
2022/07/29 00:45:21;;;;;;;6.33;4.90;;;;;;;20.23;89.36;97875.50;5058529;28;20201;-70
2022/07/29 00:47:48;;;;;;;5.17;4.43;;;;;;;20.13;89.95;97883.72;5055806;28;20228;-70
2022/07/29 00:50:15;;;;;;;5.80;4.90;;;;;;;20.10;90.37;97874.28;5056175;28;20320;-70
2022/07/29 00:52:43;;;;;;;4.60;4.10;;;;;;;20.19;90.10;97880.69;5056128;28;20316;-70
2022/07/29 00:55:12;;;;;;;4.87;4.33;;;;;;;20.26;89.99;97874.94;5056171;28;20216;-70
2022/07/29 00:57:40;;;;;;;4.30;3.90;;;;;;;20.32;89.96;97868.41;5056118;28;20288;-70
2022/07/29 01:00:10;;;;;;;4.27;3.97;;;;;;;20.25;90.39;97871.44;5055706;28;20387;-70
2022/07/29 01:02:37;;;;;;;5.50;4.53;;;;;;;20.23;90.68;97868.22;5055750;28;20702;-70
2022/07/29 01:05:06;;;;;;;4.83;4.33;;;;;;;20.30;89.81;97865.97;5055867;28;20205;-70
2022/07/29 01:07:35;;;;;;;4.47;4.17;;;;;;;20.32;89.94;97860.31;5055604;28;20205;-70
2022/07/29 01:10:05;;;;;;;4.77;4.30;;;;;;;20.38;89.72;97841.06;5055475;28;20225;-70
2022/07/29 01:12:34;;;;;;;4.27;3.97;;;;;;;20.41;89.12;97845.91;5055371;28;20610;-70
2022/07/29 01:15:03;;;;;;;4.23;3.83;;;;;;;20.27;90.02;97853.06;5038123;28;20201;-70
2022/07/29 01:17:48;;;;;;;4.23;3.73;;;;;;;20.27;89.40;97850.38;5037981;28;20742;-70
2022/07/29 01:20:19;;;;;;;4.47;4.07;;;;;;;20.36;88.92;97848.66;5055651;28;20312;-70
2022/07/29 01:23:04;;;;;;;5.77;4.47;;;;;;;20.27;91.00;97850.38;5056106;28;20190;-70
2022/07/29 01:25:33;;;;;;;4.27;3.87;;;;;;;20.27;89.13;97850.38;5055536;28;20296;-70
2022/07/29 01:28:06;;;;;;;3.83;3.53;;;;;;;20.25;89.29;97849.84;5055513;28;20213;-70
2022/07/29 01:30:35;;;;;;;4.97;4.30;;;;;;;20.33;89.07;97848.41;5037425;28;20327;-70
2022/07/29 01:33:07;;;;;;;4.80;4.40;;;;;;;20.18;89.80;97849.38;5037649;28;20233;-70
2022/07/29 01:35:39;;;;;;;5.13;4.67;;;;;;;20.17;91.19;97845.03;5055494;28;20276;-70
2022/07/29 01:38:17;;;;;;;5.47;4.00;;;;;;;20.11;91.25;97850.81;5055941;28;20225;-70
2022/07/29 01:40:50;;;;;;;4.20;3.87;;;;;;;20.05;90.70;97849.19;5055574;28;20193;-70
2022/07/29 01:43:37;;;;;;;5.23;4.10;;;;;;;20.05;90.34;97850.00;5037326;28;20560;-70
2022/07/29 01:46:10;;;;;;;6.17;4.50;;;;;;;20.06;90.57;97850.78;5038591;28;20616;-70
2022/07/29 01:48:46;;;;;;;4.00;3.60;;;;;;;20.04;89.86;97844.88;5054812;28;20225;-70
2022/07/29 01:51:18;;;;;;;3.70;3.30;;;;;;;20.09;89.24;97847.56;5037918;28;20534;-70
2022/07/29 01:53:53;;;;;;;4.10;3.63;;;;;;;20.01;89.80;97842.75;5037690;28;20200;-70
2022/07/29 01:56:22;;;;;;;3.63;3.33;;;;;;;19.97;89.31;97853.31;5054926;28;20212;-70
2022/07/29 01:58:51;;;;;;;4.27;3.80;;;;;;;20.03;89.29;97854.88;5054234;28;20316;-70
2022/07/29 02:01:19;;;;;;;3.73;3.43;;;;;;;20.01;89.35;97856.25;5037507;28;20209;-70
2022/07/29 02:03:47;;;;;;;3.57;3.27;;;;;;;20.02;88.71;97847.09;5054838;28;20698;-70
2022/07/29 02:06:19;;;;;;;3.77;3.33;;;;;;;20.02;88.86;97844.38;5054792;28;20212;-70
2022/07/29 02:08:48;;;;;;;3.93;3.60;;;;;;;19.92;89.36;97845.28;5037372;28;20327;-71
2022/07/29 02:11:15;;;;;;;3.73;3.43;;;;;;;19.91;89.47;97845.53;5054626;28;20300;-70
2022/07/29 02:13:43;;;;;;;4.40;3.93;;;;;;;19.94;88.93;97845.78;5054310;28;20204;-70
2022/07/29 02:16:11;;;;;;;4.10;3.10;;;;;;;19.89;89.39;97836.94;5054148;28;20772;-70
2022/07/29 02:18:40;;;;;;;4.43;3.63;;;;;;;19.87;89.34;97833.72;5054418;28;20314;-70
2022/07/29 02:21:06;;;;;;;4.40;3.70;;;;;;;19.84;89.21;97829.69;5054358;28;20228;-70
2022/07/29 02:23:36;;;;;;;3.50;3.30;;;;;;;19.91;88.70;97824.78;5054083;28;20209;-70
2022/07/29 02:26:03;;;;;;;5.97;3.60;;;;;;;19.87;89.02;97823.72;5054325;28;20205;-70
2022/07/29 02:28:33;;;;;;;3.60;3.30;;;;;;;19.88;88.56;97819.13;5054139;28;20255;-70
2022/07/29 02:31:03;;;;;;;4.10;3.60;;;;;;;19.81;89.34;97829.44;5054351;28;20541;-70
2022/07/29 02:33:32;;;;;;;3.63;3.33;;;;;;;19.76;89.55;97830.28;5036534;28;20225;-70
2022/07/29 02:36:00;;;;;;;3.87;3.57;;;;;;;19.73;90.00;97827.34;5053940;28;20643;-70
2022/07/29 02:41:18;;;;;;;5.53;3.70;;;;;;;19.70;90.59;97839.50;5054181;28;20330;-70
2022/07/29 02:43:49;;;;;;;4.67;3.57;;;;;;;19.66;90.54;97829.59;5054631;28;20208;-70
2022/07/29 02:46:21;;;;;;;4.53;3.60;;;;;;;19.71;90.51;97826.84;5054873;28;20194;-70
2022/07/29 02:48:59;;;;;;;4.00;3.70;;;;;;;19.66;90.89;97822.28;5053660;28;20225;-70
2022/07/29 02:52:21;;;;;;;4.00;3.70;;;;;;;19.64;91.79;97832.56;5053891;28;20276;-70
2022/07/29 02:54:55;;;;;;;4.47;3.70;;;;;;;19.61;91.71;97841.22;5030970;28;20660;-70
2022/07/29 02:57:33;;;;;;;6.10;3.73;;;;;;;19.59;91.31;97843.38;5054032;28;20620;-70
2022/07/29 03:00:05;;;;;;;3.63;3.30;;;;;;;19.64;90.34;97849.53;5053463;28;20742;-70
2022/07/29 03:02:36;;;;;;;4.07;3.67;;;;;;;19.72;89.56;97855.44;5053793;28;20185;-70
2022/07/29 03:05:03;;;;;;;3.73;3.43;;;;;;;19.63;91.18;97846.31;5053793;28;20189;-70
2022/07/29 03:07:30;;;;;;;3.30;3.00;;;;;;;19.62;90.54;97847.41;5053308;28;20300;-70
2022/07/29 03:09:58;;;;;;;3.90;3.57;;;;;;;19.62;89.88;97847.41;5052708;28;20225;-70
2022/07/29 03:12:26;;;;;;;3.63;3.23;;;;;;;19.67;90.24;97847.38;5053349;28;20319;-70
2022/07/29 03:14:53;;;;;;;4.53;3.50;;;;;;;19.68;90.06;97847.09;5053410;28;20300;-70
2022/07/29 03:17:21;;;;;;;4.57;3.20;;;;;;;19.55;91.48;97850.44;5053500;28;20212;-70
2022/07/29 03:19:48;;;;;;;3.50;3.20;;;;;;;19.57;91.18;97840.16;5053500;28;20318;-70
2022/07/29 03:22:15;;;;;;;3.37;3.07;;;;;;;19.51;91.86;97850.16;5053541;28;20229;-70
2022/07/29 03:24:41;;;;;;;4.40;3.43;;;;;;;19.46;92.37;97844.81;5035682;28;20201;-70
2022/07/29 03:27:08;;;;;;;3.43;3.23;;;;;;;19.48;93.17;97842.66;5053134;28;20266;-70
2022/07/29 03:29:34;;;;;;;3.70;3.40;;;;;;;19.50;92.46;97847.78;5053151;28;20243;-70
2022/07/29 03:32:02;;;;;;;4.70;3.27;;;;;;;19.49;92.08;97844.25;5053054;28;20668;-70
2022/07/29 03:34:28;;;;;;;3.67;3.37;;;;;;;19.43;91.83;97844.56;5053381;28;20295;-70
2022/07/29 03:36:55;;;;;;;3.83;3.43;;;;;;;19.43;92.51;97842.69;5053102;28;20219;-70
2022/07/29 03:39:24;;;;;;;3.63;3.30;;;;;;;19.39;92.75;97852.44;5053181;28;20228;-70
2022/07/29 03:41:54;;;;;;;3.60;3.30;;;;;;;19.39;93.03;97847.03;5053079;28;20212;-70
2022/07/29 03:44:22;;;;;;;5.67;3.43;;;;;;;19.37;93.48;97851.09;5053044;28;20280;-70
2022/07/29 03:46:51;;;;;;;4.20;3.80;;;;;;;19.36;93.74;97854.88;5053166;28;20205;-70
2022/07/29 03:49:20;;;;;;;3.77;3.47;;;;;;;19.36;93.19;97854.88;5052744;28;20315;-70
2022/07/29 03:51:47;;;;;;;3.33;3.03;;;;;;;19.36;93.26;97860.28;5052611;28;20209;-70
2022/07/29 03:54:14;;;;;;;3.87;3.07;;;;;;;19.24;94.18;97857.91;5035327;28;20207;-71
2022/07/29 03:56:44;;;;;;;3.40;3.10;;;;;;;19.24;94.40;97859.81;5052981;28;20205;-70
2022/07/29 03:59:12;;;;;;;3.70;3.40;;;;;;;19.25;93.83;97856.81;5052548;28;20256;-70
2022/07/29 04:01:39;;;;;;;3.57;3.30;;;;;;;19.26;93.50;97854.91;5053185;28;20241;-70
2022/07/29 04:04:06;;;;;;;3.27;3.03;;;;;;;19.21;94.32;97853.03;5052935;28;20228;-70
2022/07/29 04:06:44;;;;;;;4.17;3.43;;;;;;;19.16;94.71;97850.38;5052720;28;20201;-70
2022/07/29 04:09:11;;;;;;;3.60;3.30;;;;;;;19.16;95.33;97857.66;5052781;28;20229;-70
2022/07/29 04:11:40;;;;;;;5.17;3.10;;;;;;;19.18;94.64;97847.41;5052485;28;20686;-70
2022/07/29 04:14:07;;;;;;;3.53;3.20;;;;;;;19.19;95.61;97849.81;5052793;28;20216;-70
2022/07/29 04:16:33;;;;;;;3.73;3.27;;;;;;;19.24;94.90;97854.41;5052699;28;20205;-70
2022/07/29 04:19:00;;;;;;;4.33;3.40;;;;;;;19.26;94.05;97853.03;5052839;28;20600;-70
2022/07/29 04:21:26;;;;;;;5.40;3.20;;;;;;;19.19;94.66;97855.19;5055083;28;20300;-70
2022/07/29 04:23:53;;;;;;;3.70;3.40;;;;;;;19.27;94.32;97857.34;5056490;28;20201;-70
2022/07/29 04:26:21;;;;;;;3.40;3.10;;;;;;;19.30;94.07;97856.78;5056266;28;20296;-70
2022/07/29 04:28:47;;;;;;;3.37;3.07;;;;;;;19.25;94.00;97858.72;5056020;28;20253;-70
2022/07/29 04:31:14;;;;;;;5.00;3.20;;;;;;;19.27;94.85;97862.72;5056444;28;20200;-70
2022/07/29 04:33:41;;;;;;;3.30;3.00;;;;;;;19.26;94.67;97858.44;5056288;28;20228;-70
2022/07/29 04:36:07;;;;;;;3.60;3.23;;;;;;;19.27;94.93;97860.03;5056083;28;20312;-70
2022/07/29 04:38:33;;;;;;;3.47;3.03;;;;;;;19.32;94.47;97865.41;5055686;28;20327;-70
2022/07/29 04:41:00;;;;;;;3.87;3.50;;;;;;;19.33;94.93;97867.03;5055561;28;20695;-70
2022/07/29 04:43:26;;;;;;;3.37;3.17;;;;;;;19.33;95.41;97867.03;5055797;28;20296;-70
2022/07/29 04:45:53;;;;;;;3.37;2.90;;;;;;;19.40;94.43;97867.50;5055348;28;20639;-70
2022/07/29 04:48:19;;;;;;;4.73;3.87;;;;;;;19.48;93.10;97870.72;5055410;28;20240;-70
2022/07/29 04:50:45;;;;;;;4.40;3.83;;;;;;;19.60;92.46;97867.34;5055769;28;20308;-70
2022/07/29 04:53:12;;;;;;;4.13;3.70;;;;;;;19.60;92.82;97861.19;5055338;28;20227;-70
2022/07/29 04:55:38;;;;;;;4.43;3.93;;;;;;;19.60;92.80;97856.56;5056290;28;20208;-70
2022/07/29 04:58:05;;;;;;;4.60;4.00;;;;;;;19.67;92.10;97859.75;5055721;28;20288;-70
2022/07/29 05:00:31;;;;;;;4.83;4.40;;;;;;;19.65;92.62;97858.44;5055443;28;20245;-70
2022/07/29 05:02:57;;;;;;;5.70;4.80;;;;;;;19.67;92.25;97865.16;5055977;28;20204;-70
2022/07/29 05:05:24;;;;;;;4.73;4.23;;;;;;;19.65;92.29;97869.22;5055576;28;20209;-70
2022/07/29 05:07:50;;;;;;;5.77;4.43;;;;;;;19.91;90.73;97867.94;5055742;28;20213;-70
2022/07/29 05:10:17;;;;;;;4.43;3.97;;;;;;;20.26;88.17;97864.94;5054935;28;20221;-70
2022/07/29 05:12:43;;;;;;;4.27;3.40;;;;;;;20.46;85.01;97862.03;5055406;28;20221;-70
2022/07/29 05:15:10;;;;;;;3.10;2.80;;;;;;;21.19;80.39;97867.94;5055338;28;20205;-70
2022/07/29 05:17:37;;;;;;;3.50;2.27;;;;;;;21.67;76.21;97869.41;5055241;28;20567;-70
2022/07/29 05:20:04;;;;;;;3.07;2.40;;;;;;;21.64;75.56;97867.28;5055235;28;20229;-70
2022/07/29 05:22:30;;;;;;;3.23;2.30;;;;;;;21.37;75.44;97869.84;5055786;28;20581;-70
2022/07/29 05:24:56;;;;;;;2.50;2.30;;;;;;;21.41;75.05;97868.97;5054806;28;20215;-70
2022/07/29 05:27:23;;;;;;;2.20;2.07;;;;;;;21.07;77.44;97868.34;5055670;28;20292;-70
2022/07/29 05:29:49;;;;;;;2.70;2.50;;;;;;;20.79;77.27;97874.63;5054921;28;20241;-70
2022/07/29 05:32:15;;;;;;;2.67;2.47;;;;;;;20.79;78.19;97866.53;5055144;28;20300;-70
2022/07/29 05:34:42;;;;;;;2.33;2.23;;;;;;;20.74;78.53;97863.06;5054580;28;20209;-70
2022/07/29 05:37:09;;;;;;;4.87;2.60;;;;;;;20.66;79.06;97875.31;5054554;28;20650;-70
2022/07/29 05:39:35;;;;;;;2.70;2.50;;;;;;;20.81;79.11;97866.25;5054573;28;20587;-70
2022/07/29 05:42:02;;;;;;;2.80;2.60;;;;;;;20.82;79.35;97868.66;5054217;28;20624;-70
2022/07/29 05:44:28;;;;;;;3.57;3.13;;;;;;;20.96;78.79;97875.00;5054799;28;20211;-70
2022/07/29 05:46:55;;;;;;;5.00;2.93;;;;;;;21.20;77.99;97870.34;5054478;28;20211;-70
2022/07/29 05:49:21;;;;;;;3.33;2.93;;;;;;;21.22;76.52;97872.75;5054390;28;20595;-70
2022/07/29 05:51:49;;;;;;;3.03;2.47;;;;;;;21.26;76.19;97873.78;5054554;28;20201;-70
2022/07/29 05:54:15;;;;;;;3.63;2.50;;;;;;;21.43;75.60;97874.09;5054513;28;20233;-70
2022/07/29 05:56:41;;;;;;;3.90;2.30;;;;;;;21.38;75.19;97877.66;5054570;28;20627;-70
2022/07/29 05:59:08;;;;;;;2.57;2.37;;;;;;;21.42;73.86;97891.41;5054411;28;20221;-70
2022/07/29 06:01:38;;;;;;;2.73;2.20;;;;;;;21.64;73.08;97881.63;5054338;28;20686;-70
2022/07/29 06:04:05;;;;;;;2.23;2.03;;;;;;;21.77;73.29;97878.19;5054173;28;20633;-70
2022/07/29 06:06:31;;;;;;;3.37;2.17;;;;;;;21.88;71.92;97882.34;5054251;28;20209;-70
2022/07/29 06:08:57;;;;;;;3.00;2.33;;;;;;;21.90;71.93;97887.47;5054454;28;20229;-70
2022/07/29 06:11:24;;;;;;;3.03;2.13;;;;;;;21.69;72.91;97884.28;5053654;28;20638;-70
2022/07/29 06:13:50;;;;;;;2.40;2.20;;;;;;;21.94;71.67;97893.91;5053783;28;20316;-69
2022/07/29 06:16:17;;;;;;;2.67;2.20;;;;;;;22.17;70.36;97893.78;5053484;28;20687;-69
2022/07/29 06:18:43;;;;;;;3.40;2.37;;;;;;;22.30;70.25;97894.91;5053573;28;20252;-70
2022/07/29 06:21:10;;;;;;;2.17;2.03;;;;;;;22.32;69.84;97893.50;5053798;28;20625;-70
2022/07/29 06:23:40;;;;;;;3.30;2.30;;;;;;;22.39;69.23;97893.91;5054753;28;20206;-71
2022/07/29 06:26:07;;;;;;;2.40;2.20;;;;;;;22.71;69.32;97903.94;5053876;28;20548;-69
2022/07/29 06:28:34;;;;;;;2.42;2.15;;;;;;;22.74;68.37;97903.34;5054540;28;20225;-69
2022/07/29 06:31:00;;;;;;;2.80;2.47;;;;;;;22.96;67.87;97904.25;5053940;28;20292;-69
2022/07/29 06:33:27;;;;;;;2.80;2.20;;;;;;;22.79;67.73;97909.47;5053384;28;20307;-70
2022/07/29 06:35:54;;;;;;;5.13;2.55;;;;;;;22.75;67.75;97904.94;5054337;28;20616;-70
2022/07/29 06:38:20;;;;;;;2.22;2.10;;;;;;;22.64;68.39;97900.81;5053560;28;20285;-70
2022/07/29 06:41:03;;;;;;;3.22;2.20;;;;;;;22.61;68.48;97913.06;5053411;28;20212;-70
2022/07/29 06:43:37;;;;;;;3.75;2.50;;;;;;;22.95;68.30;97905.34;5052973;28;20186;-70
2022/07/29 06:46:06;;;;;;;2.85;2.47;;;;;;;22.95;68.32;97904.53;5053058;28;20197;-70
2022/07/29 06:48:34;;;;;;;3.10;2.50;;;;;;;23.06;67.39;97905.97;5053755;28;20316;-70
2022/07/29 06:51:01;;;;;;;3.45;2.30;;;;;;;22.98;67.21;97906.66;5053669;28;20627;-70
2022/07/29 06:53:28;;;;;;;3.78;2.42;;;;;;;23.07;66.67;97904.84;5053573;28;20248;-70
2022/07/29 06:55:54;;;;;;;2.72;2.33;;;;;;;23.29;65.72;97907.69;5053532;28;20331;-70
2022/07/29 06:58:21;;;;;;;4.18;2.38;;;;;;;23.40;66.69;97909.03;5053382;28;20295;-70
2022/07/29 07:00:48;;;;;;;2.90;2.67;;;;;;;23.24;65.27;97905.84;5053114;28;20241;-70
2022/07/29 07:03:15;;;;;;;3.25;2.55;;;;;;;23.07;66.38;97913.78;5053123;28;20663;-70
2022/07/29 07:05:42;;;;;;;2.63;2.42;;;;;;;23.48;64.54;97911.84;5053343;28;20295;-70
2022/07/29 07:08:08;;;;;;;3.15;2.45;;;;;;;23.39;64.46;97913.69;5052980;28;20324;-70
2022/07/29 07:10:35;;;;;;;3.05;2.40;;;;;;;23.38;64.35;97914.78;5053227;28;20229;-71
2022/07/29 07:13:02;;;;;;;3.92;2.63;;;;;;;23.54;64.87;97916.06;5052863;28;20719;-70
2022/07/29 07:15:29;;;;;;;3.45;2.63;;;;;;;23.87;64.06;97917.47;5053205;28;20311;-70
2022/07/29 07:17:55;;;;;;;4.47;2.67;;;;;;;23.32;63.18;97917.91;5052943;28;20763;-70
2022/07/29 07:20:22;;;;;;;4.75;3.05;;;;;;;23.44;64.17;97920.91;5053050;28;20319;-70
2022/07/29 07:22:48;;;;;;;3.35;2.85;;;;;;;23.46;64.26;97919.50;5053145;28;20604;-70
2022/07/29 07:25:14;;;;;;;4.15;2.90;;;;;;;23.25;64.06;97917.53;5052903;28;20252;-70
2022/07/29 07:27:41;;;;;;;5.72;3.22;;;;;;;23.34;63.32;97927.34;5052924;28;20232;-71
2022/07/29 07:30:08;;;;;;;3.15;2.83;;;;;;;23.44;64.24;97919.00;5052384;28;20316;-69
2022/07/29 07:32:35;;;;;;;4.15;2.78;;;;;;;23.62;63.72;97933.53;5052831;28;20216;-69
2022/07/29 07:35:02;;;;;;;3.38;3.10;;;;;;;23.28;64.82;97934.00;5052985;28;20251;-70
2022/07/29 07:37:28;;;;;;;3.38;2.90;;;;;;;23.62;63.22;97928.09;5052510;28;20226;-69
2022/07/29 07:39:55;;;;;;;4.30;2.90;;;;;;;23.78;62.53;97930.16;5052842;28;20588;-70
2022/07/29 07:42:21;;;;;;;3.15;2.85;;;;;;;24.12;60.60;97930.47;5053140;28;20224;-69
2022/07/29 07:44:48;;;;;;;8.63;7.82;;;;;;;23.94;60.67;97928.75;5052698;28;20288;-70
2022/07/29 07:47:19;;;;;;;3.20;2.90;;;;;;;23.81;61.45;97932.28;5052612;28;20209;-70
2022/07/29 07:49:48;;;;;;;5.85;3.30;;;;;;;23.44;62.85;97931.75;5052862;28;20271;-70
2022/07/29 07:52:17;;;;;;;3.63;3.33;;;;;;;23.42;62.27;97931.28;5052724;28;20300;-70
2022/07/29 07:54:44;;;;;;;4.22;3.28;;;;;;;23.72;61.41;97934.13;5052843;28;20327;-70
2022/07/29 07:57:11;;;;;;;4.53;3.05;;;;;;;24.00;60.70;97940.28;5056777;28;20205;-71
2022/07/29 07:59:38;;;;;;;5.15;3.35;;;;;;;24.18;60.02;97948.25;5056596;28;20740;-70
2022/07/29 08:02:05;;;;;;;4.57;3.20;;;;;;;23.89;59.24;97934.25;5056904;28;20205;-70
2022/07/29 08:04:32;;;;;;;3.92;3.50;;;;;;;23.70;59.76;97941.75;5057399;28;20543;-70
2022/07/29 08:06:59;;;;;;;6.70;3.25;;;;;;;23.89;59.35;97941.59;5056475;28;20212;-70
2022/07/29 08:09:28;;;;;;;6.28;3.70;;;;;;;23.74;60.13;97934.59;5056277;28;20221;-70
2022/07/29 08:11:54;;;;;;;4.30;3.78;;;;;;;23.75;59.50;97932.69;5056973;28;20288;-70
2022/07/29 08:14:21;;;;;;;4.45;3.20;;;;;;;24.01;57.88;97941.91;5056479;28;20317;-70
2022/07/29 08:16:48;;;;;;;5.00;3.47;;;;;;;24.06;57.07;97936.34;5056562;28;20292;-70
2022/07/29 08:19:15;;;;;;;3.28;2.97;;;;;;;24.18;57.68;97948.25;5056790;28;20229;-70
2022/07/29 08:21:41;;;;;;;3.60;3.30;;;;;;;24.34;56.52;97940.53;5056316;28;20209;-70
2022/07/29 08:26:52;;;;;;;5.22;3.45;;;;;;;24.44;56.78;97937.56;5056458;28;20215;-70
2022/07/29 08:29:18;;;;;;;3.90;3.53;;;;;;;23.91;57.00;97939.41;5056066;28;20268;-70
2022/07/29 08:31:45;;;;;;;3.67;3.08;;;;;;;24.16;57.99;97936.09;5056088;28;20672;-70
2022/07/29 08:34:12;;;;;;;3.60;3.28;;;;;;;24.24;57.68;97938.06;5055965;28;20228;-70
2022/07/29 08:36:39;;;;;;;4.13;3.28;;;;;;;24.56;57.12;97935.88;5056038;28;20759;-69
2022/07/29 08:39:05;;;;;;;7.40;3.50;;;;;;;25.24;54.23;97930.75;5056121;28;20221;-70
2022/07/29 08:41:32;;;;;;;4.90;3.80;;;;;;;25.30;53.67;97934.97;5055943;28;20215;-70
2022/07/29 08:43:58;;;;;;;27.52;24.65;;;;;;;25.08;54.08;97940.47;5055895;28;20212;-70
2022/07/29 08:46:25;;;;;;;4.47;3.30;;;;;;;24.94;50.80;97938.97;5055747;28;20270;-70
2022/07/29 08:48:51;;;;;;;6.82;6.18;;;;;;;24.98;50.97;97938.03;5055987;28;20229;-70
2022/07/29 08:51:20;;;;;;;5.95;3.40;;;;;;;24.63;51.32;97935.44;5055871;28;20201;-70
2022/07/29 08:53:48;;;;;;;7.82;3.42;;;;;;;24.55;52.19;97928.00;5055641;28;20227;-71
2022/07/29 08:56:19;;;;;;;5.90;3.72;;;;;;;24.93;54.45;97931.94;5056178;28;20209;-71
2022/07/29 08:58:47;;;;;;;6.25;4.05;;;;;;;25.24;51.08;97935.41;5055624;28;20228;-70
2022/07/29 09:01:21;;;;;;;6.50;4.68;;;;;;;25.31;49.15;97933.03;5055734;28;20206;-71
2022/07/29 09:03:48;;;;;;;4.80;4.45;;;;;;;25.33;51.31;97937.03;5055269;28;20654;-69
2022/07/29 09:06:17;;;;;;;4.85;3.13;;;;;;;24.95;50.64;97946.00;5055406;28;20213;-70
2022/07/29 09:08:45;;;;;;;8.40;5.65;;;;;;;25.08;50.69;97942.38;5054696;28;20317;-70
2022/07/29 09:11:13;;;;;;;3.65;3.20;;;;;;;25.51;49.98;97938.69;5055182;28;20259;-69
2022/07/29 09:13:40;;;;;;;16.95;15.18;;;;;;;25.51;49.13;97943.34;5055633;28;20262;-70
2022/07/29 09:16:06;;;;;;;4.22;3.10;;;;;;;25.60;48.99;97936.78;5055413;28;20233;-69
2022/07/29 09:18:41;;;;;;;5.47;3.20;;;;;;;26.03;48.40;97932.19;5055128;28;20707;-69
2022/07/29 09:24:01;;;;;;;6.63;3.20;;;;;;;26.58;47.07;97929.56;5055315;28;20231;-69
2022/07/29 09:26:32;;;;;;;4.47;3.22;;;;;;;25.74;48.18;97926.53;5055009;28;20240;-70
2022/07/29 09:29:08;;;;;;;3.78;3.13;;;;;;;25.94;48.57;97936.03;5055518;28;20316;-69
2022/07/29 09:31:37;;;;;;;5.00;3.20;;;;;;;26.28;47.46;97933.31;5055227;28;20193;-70
2022/07/29 09:34:04;;;;;;;5.15;3.40;;;;;;;26.47;47.17;97933.75;5055203;28;20256;-70
2022/07/29 09:36:31;;;;;;;11.05;9.07;;;;;;;26.27;46.40;97928.94;5055254;28;20244;-71
2022/07/29 09:39:02;;;;;;;5.45;3.65;;;;;;;26.16;47.54;97933.16;5055558;28;20311;-70
2022/07/29 09:41:29;;;;;;;6.47;3.60;;;;;;;26.75;46.07;97927.59;5055129;28;20196;-70
2022/07/29 09:44:01;;;;;;;4.60;3.30;;;;;;;26.84;46.09;97927.56;5054814;28;20296;-70
2022/07/29 09:46:27;;;;;;;6.15;3.90;;;;;;;26.33;46.01;97922.22;5054994;28;20564;-70
2022/07/29 09:49:10;;;;;;;4.28;3.58;;;;;;;26.52;45.70;97918.03;5036933;28;20229;-70
2022/07/29 09:51:37;;;;;;;5.07;3.35;;;;;;;26.80;45.37;97916.53;5055442;28;20268;-70
2022/07/29 09:54:23;;;;;;;5.85;3.53;;;;;;;26.65;46.88;97919.75;5054079;28;20626;-71
2022/07/29 09:56:51;;;;;;;6.50;4.03;;;;;;;26.48;46.92;97917.06;5054564;28;20296;-71
2022/07/29 09:59:17;;;;;;;5.32;4.82;;;;;;;26.24;47.34;97911.31;5053853;28;20229;-71
2022/07/29 10:01:44;;;;;;;3.95;3.53;;;;;;;26.24;47.27;97913.25;5054136;28;20223;-70
2022/07/29 10:04:10;;;;;;;12.98;4.13;;;;;;;26.06;46.81;97907.00;5054277;28;20203;-71
2022/07/29 10:06:56;;;;;;;6.22;3.50;;;;;;;25.97;47.88;97911.66;5054425;28;20297;-71
2022/07/29 10:09:23;;;;;;;8.25;3.45;;;;;;;25.96;47.76;97906.56;5054194;28;20240;-70
2022/07/29 10:12:10;;;;;;;13.85;7.82;;;;;;;25.82;48.35;97914.06;5053753;28;20209;-70
2022/07/29 10:14:38;;;;;;;7.38;5.85;;;;;;;25.85;48.95;97908.78;5054309;28;20243;-70
2022/07/29 10:17:06;;;;;;;6.28;5.00;;;;;;;25.94;48.78;97908.78;5054646;28;20209;-70
2022/07/29 10:19:34;;;;;;;4.65;3.30;;;;;;;26.08;48.76;97909.41;5053942;28;20231;-70
2022/07/29 10:22:02;;;;;;;4.13;3.80;;;;;;;25.87;48.81;97905.72;5054506;28;20552;-70
2022/07/29 10:24:29;;;;;;;6.57;4.20;;;;;;;25.45;50.19;97909.22;5054071;28;20296;-71
2022/07/29 10:26:57;;;;;;;6.47;4.25;;;;;;;25.62;50.77;97911.97;5054100;28;20669;-70
2022/07/29 10:29:24;;;;;;;7.05;4.60;;;;;;;25.73;50.58;97902.38;5053514;28;20711;-70
2022/07/29 10:31:56;;;;;;;9.80;5.10;;;;;;;25.51;51.86;97905.22;5053653;28;20233;-70
2022/07/29 10:34:53;;;;;;;7.72;4.63;;;;;;;25.38;52.87;97901.50;5036000;28;20209;-70
2022/07/29 10:37:43;;;;;;;7.55;4.65;;;;;;;25.22;53.56;97908.50;5054229;28;20195;-70
2022/07/29 10:43:22;;;;;;;6.55;5.15;;;;;;;24.94;52.99;97900.88;5054109;28;20627;-70
2022/07/29 10:45:50;;;;;;;9.18;7.28;;;;;;;24.88;54.32;97899.44;5053707;28;20217;-70
2022/07/29 10:48:16;;;;;;;7.15;6.45;;;;;;;24.90;54.16;97910.78;5053343;28;20723;-70
2022/07/29 10:50:59;;;;;;;5.40;4.35;;;;;;;24.79;54.94;97904.81;5053568;28;20582;-70
2022/07/29 10:53:47;;;;;;;5.13;3.90;;;;;;;24.85;53.96;97913.66;5053640;28;20277;-71
2022/07/29 10:56:34;;;;;;;5.38;4.22;;;;;;;24.78;53.40;97916.03;5053598;28;20193;-70
2022/07/29 10:59:19;;;;;;;5.38;4.50;;;;;;;24.58;56.21;97914.63;5053124;28;20638;-70
2022/07/29 11:01:46;;;;;;;15.38;13.85;;;;;;;24.45;55.09;97922.84;5053429;28;20255;-71
2022/07/29 11:04:13;;;;;;;7.45;5.90;;;;;;;24.21;58.73;97938.69;5053217;28;20216;-70
2022/07/29 11:07:01;;;;;;;6.15;5.13;;;;;;;23.86;62.27;97932.16;5053559;28;20205;-70
2022/07/29 11:09:30;;;;;;;6.35;5.72;;;;;;;23.69;64.49;97931.22;5053059;28;20578;-70
2022/07/29 11:11:59;;;;;;;9.95;5.93;;;;;;;23.35;68.93;97928.16;5053364;28;20205;-70
2022/07/29 11:15:02;;;;;;;5.53;4.78;;;;;;;23.06;70.42;97930.38;5052785;28;20700;-70
2022/07/29 11:17:29;;;;;;;7.70;4.85;;;;;;;22.96;71.70;97944.09;5053346;28;20208;-70
2022/07/29 11:20:32;;;;;;;8.48;5.40;;;;;;;22.64;78.40;97957.72;5053711;28;20312;-69
2022/07/29 11:23:00;;;;;;;7.13;5.20;;;;;;;22.45;80.14;97955.09;5053282;28;20196;-69
2022/07/29 11:25:26;;;;;;;7.18;6.00;;;;;;;22.22;81.58;97952.47;5053105;28;20197;-69
2022/07/29 11:27:55;;;;;;;9.00;6.18;;;;;;;22.02;80.65;97960.91;5052960;28;20300;-69
2022/07/29 11:30:21;;;;;;;8.57;6.05;;;;;;;21.99;81.98;97950.66;5033817;28;20677;-69
2022/07/29 11:32:48;;;;;;;8.75;6.05;;;;;;;22.05;84.41;97952.19;5052930;28;20302;-70
2022/07/29 11:35:23;;;;;;;7.38;5.82;;;;;;;22.16;83.13;97948.25;5053001;28;20328;-69
2022/07/29 11:38:24;;;;;;;6.20;5.60;;;;;;;22.38;84.35;97956.53;5053189;28;20196;-69
2022/07/29 11:41:18;;;;;;;8.20;5.85;;;;;;;22.29;82.43;97959.09;5048080;28;20295;-70
2022/07/29 11:43:59;;;;;;;9.25;5.80;;;;;;;22.49;84.56;97964.22;5052931;28;20284;-69
2022/07/29 11:46:44;;;;;;;8.90;6.28;;;;;;;22.41;81.67;97961.34;5053338;28;20213;-70
2022/07/29 11:49:11;;;;;;;7.35;5.60;;;;;;;22.23;79.90;97959.47;5052385;28;20228;-69
2022/07/29 11:51:38;;;;;;;7.47;6.15;;;;;;;22.31;81.13;97956.09;5052594;28;20288;-69
2022/07/29 11:54:06;;;;;;;7.75;5.78;;;;;;;22.36;80.74;97958.72;5053186;28;20224;-70
2022/07/29 11:56:33;;;;;;;7.20;5.45;;;;;;;22.26;79.14;97958.91;5053541;28;20296;-70
2022/07/29 11:59:08;;;;;;;6.85;5.70;;;;;;;22.32;79.25;97953.09;5052516;28;20316;-70